sensor_id;sensor_type;location;lat;lon;timestamp;P1;durP1;ratioP1;P2;durP2;ratioP2
7426;SDS011;3755;59.316;18.092;2024-02-14T00:01:11;8.97;;;4.80;;
7426;SDS011;3755;59.316;18.092;2024-02-14T00:03:39;6.73;;;3.43;;
7426;SDS011;3755;59.316;18.092;2024-02-14T00:06:06;6.50;;;3.27;;
7426;SDS011;3755;59.316;18.092;2024-02-14T00:08:33;8.10;;;4.03;;
7426;SDS011;3755;59.316;18.092;2024-02-14T00:11:00;5.50;;;3.30;;
7426;SDS011;3755;59.316;18.092;2024-02-14T00:13:29;7.53;;;3.77;;
7426;SDS011;3755;59.316;18.092;2024-02-14T00:15:59;4.63;;;2.73;;
7426;SDS011;3755;59.316;18.092;2024-02-14T00:18:26;10.87;;;4.40;;
7426;SDS011;3755;59.316;18.092;2024-02-14T00:20:54;7.50;;;4.30;;
7426;SDS011;3755;59.316;18.092;2024-02-14T00:23:21;9.93;;;4.33;;
7426;SDS011;3755;59.316;18.092;2024-02-14T00:25:48;5.27;;;3.07;;
7426;SDS011;3755;59.316;18.092;2024-02-14T00:28:15;5.03;;;3.43;;
7426;SDS011;3755;59.316;18.092;2024-02-14T00:30:42;5.67;;;3.30;;
7426;SDS011;3755;59.316;18.092;2024-02-14T00:33:11;5.17;;;3.60;;
7426;SDS011;3755;59.316;18.092;2024-02-14T00:35:38;6.43;;;3.47;;
7426;SDS011;3755;59.316;18.092;2024-02-14T00:38:06;8.37;;;4.33;;
7426;SDS011;3755;59.316;18.092;2024-02-14T00:40:33;4.70;;;3.17;;
7426;SDS011;3755;59.316;18.092;2024-02-14T00:43:00;9.00;;;3.97;;
7426;SDS011;3755;59.316;18.092;2024-02-14T00:45:27;5.60;;;3.27;;
7426;SDS011;3755;59.316;18.092;2024-02-14T00:47:54;11.30;;;4.77;;
7426;SDS011;3755;59.316;18.092;2024-02-14T00:50:21;9.97;;;5.33;;
7426;SDS011;3755;59.316;18.092;2024-02-14T00:52:48;6.67;;;3.87;;
7426;SDS011;3755;59.316;18.092;2024-02-14T00:55:17;5.37;;;2.67;;
7426;SDS011;3755;59.316;18.092;2024-02-14T00:57:44;3.73;;;2.23;;
7426;SDS011;3755;59.316;18.092;2024-02-14T01:00:11;4.60;;;2.80;;
7426;SDS011;3755;59.316;18.092;2024-02-14T01:02:39;4.23;;;2.43;;
7426;SDS011;3755;59.316;18.092;2024-02-14T01:05:06;10.00;;;4.53;;
7426;SDS011;3755;59.316;18.092;2024-02-14T01:07:34;5.23;;;3.00;;
7426;SDS011;3755;59.316;18.092;2024-02-14T01:10:02;8.87;;;4.37;;
7426;SDS011;3755;59.316;18.092;2024-02-14T01:12:30;6.80;;;3.70;;
7426;SDS011;3755;59.316;18.092;2024-02-14T01:14:58;10.90;;;5.83;;
7426;SDS011;3755;59.316;18.092;2024-02-14T01:17:25;10.07;;;5.73;;
7426;SDS011;3755;59.316;18.092;2024-02-14T01:19:52;10.23;;;5.53;;
7426;SDS011;3755;59.316;18.092;2024-02-14T01:22:19;13.97;;;6.13;;
7426;SDS011;3755;59.316;18.092;2024-02-14T01:24:46;10.83;;;5.60;;
7426;SDS011;3755;59.316;18.092;2024-02-14T01:27:13;13.23;;;6.17;;
7426;SDS011;3755;59.316;18.092;2024-02-14T01:29:43;10.40;;;4.63;;
7426;SDS011;3755;59.316;18.092;2024-02-14T01:32:10;12.93;;;6.20;;
7426;SDS011;3755;59.316;18.092;2024-02-14T01:34:37;9.93;;;5.27;;
7426;SDS011;3755;59.316;18.092;2024-02-14T01:37:04;6.40;;;3.47;;
7426;SDS011;3755;59.316;18.092;2024-02-14T01:39:32;12.57;;;5.97;;
7426;SDS011;3755;59.316;18.092;2024-02-14T01:41:59;9.70;;;4.47;;
7426;SDS011;3755;59.316;18.092;2024-02-14T01:44:25;11.70;;;5.67;;
7426;SDS011;3755;59.316;18.092;2024-02-14T01:46:54;4.70;;;3.23;;
7426;SDS011;3755;59.316;18.092;2024-02-14T01:49:21;12.37;;;5.27;;
7426;SDS011;3755;59.316;18.092;2024-02-14T01:51:49;7.90;;;3.83;;
7426;SDS011;3755;59.316;18.092;2024-02-14T01:54:16;11.00;;;5.87;;
7426;SDS011;3755;59.316;18.092;2024-02-14T01:56:42;7.67;;;4.43;;
7426;SDS011;3755;59.316;18.092;2024-02-14T01:59:10;8.97;;;5.03;;
7426;SDS011;3755;59.316;18.092;2024-02-14T02:01:37;14.93;;;7.53;;
7426;SDS011;3755;59.316;18.092;2024-02-14T02:04:06;8.17;;;4.00;;
7426;SDS011;3755;59.316;18.092;2024-02-14T02:06:33;10.10;;;5.60;;
7426;SDS011;3755;59.316;18.092;2024-02-14T02:09:02;16.43;;;8.20;;
7426;SDS011;3755;59.316;18.092;2024-02-14T02:11:29;13.10;;;6.50;;
7426;SDS011;3755;59.316;18.092;2024-02-14T02:14:08;13.03;;;6.23;;
7426;SDS011;3755;59.316;18.092;2024-02-14T02:16:35;11.30;;;6.87;;
7426;SDS011;3755;59.316;18.092;2024-02-14T02:19:03;10.67;;;6.37;;
7426;SDS011;3755;59.316;18.092;2024-02-14T02:21:37;12.13;;;6.63;;
7426;SDS011;3755;59.316;18.092;2024-02-14T02:24:05;9.50;;;5.67;;
7426;SDS011;3755;59.316;18.092;2024-02-14T02:26:33;10.67;;;5.20;;
7426;SDS011;3755;59.316;18.092;2024-02-14T02:29:00;13.53;;;6.33;;
7426;SDS011;3755;59.316;18.092;2024-02-14T02:31:27;9.60;;;6.27;;
7426;SDS011;3755;59.316;18.092;2024-02-14T02:33:55;13.07;;;7.33;;
7426;SDS011;3755;59.316;18.092;2024-02-14T02:36:22;13.30;;;6.77;;
7426;SDS011;3755;59.316;18.092;2024-02-14T02:38:50;12.57;;;6.43;;
7426;SDS011;3755;59.316;18.092;2024-02-14T02:41:19;11.50;;;6.63;;
7426;SDS011;3755;59.316;18.092;2024-02-14T02:43:46;11.23;;;6.07;;
7426;SDS011;3755;59.316;18.092;2024-02-14T02:46:14;12.67;;;7.50;;
7426;SDS011;3755;59.316;18.092;2024-02-14T02:48:42;14.33;;;7.03;;
7426;SDS011;3755;59.316;18.092;2024-02-14T02:51:08;14.37;;;7.40;;
7426;SDS011;3755;59.316;18.092;2024-02-14T02:53:35;14.40;;;8.17;;
7426;SDS011;3755;59.316;18.092;2024-02-14T02:56:03;13.50;;;7.50;;
7426;SDS011;3755;59.316;18.092;2024-02-14T02:58:32;14.93;;;7.37;;
7426;SDS011;3755;59.316;18.092;2024-02-14T03:00:59;14.87;;;7.63;;
7426;SDS011;3755;59.316;18.092;2024-02-14T03:03:26;19.10;;;8.80;;
7426;SDS011;3755;59.316;18.092;2024-02-14T03:05:53;16.60;;;8.20;;
7426;SDS011;3755;59.316;18.092;2024-02-14T03:08:21;16.33;;;8.43;;
7426;SDS011;3755;59.316;18.092;2024-02-14T03:10:50;15.57;;;8.30;;
7426;SDS011;3755;59.316;18.092;2024-02-14T03:13:17;15.90;;;8.10;;
7426;SDS011;3755;59.316;18.092;2024-02-14T03:15:46;15.87;;;8.33;;
7426;SDS011;3755;59.316;18.092;2024-02-14T03:18:16;15.77;;;8.50;;
7426;SDS011;3755;59.316;18.092;2024-02-14T03:20:43;15.47;;;8.20;;
7426;SDS011;3755;59.316;18.092;2024-02-14T03:23:12;16.23;;;8.50;;
7426;SDS011;3755;59.316;18.092;2024-02-14T03:25:40;15.90;;;8.20;;
7426;SDS011;3755;59.316;18.092;2024-02-14T03:28:07;17.17;;;8.63;;
7426;SDS011;3755;59.316;18.092;2024-02-14T03:30:34;17.87;;;9.97;;
7426;SDS011;3755;59.316;18.092;2024-02-14T03:33:03;17.00;;;9.63;;
7426;SDS011;3755;59.316;18.092;2024-02-14T03:35:30;15.43;;;8.30;;
7426;SDS011;3755;59.316;18.092;2024-02-14T03:37:59;14.83;;;8.30;;
7426;SDS011;3755;59.316;18.092;2024-02-14T03:40:28;19.07;;;9.53;;
7426;SDS011;3755;59.316;18.092;2024-02-14T03:42:56;16.97;;;9.50;;
7426;SDS011;3755;59.316;18.092;2024-02-14T03:45:23;12.97;;;7.70;;
7426;SDS011;3755;59.316;18.092;2024-02-14T03:47:52;16.30;;;8.50;;
7426;SDS011;3755;59.316;18.092;2024-02-14T03:50:21;16.30;;;7.93;;
7426;SDS011;3755;59.316;18.092;2024-02-14T03:52:48;13.33;;;8.10;;
7426;SDS011;3755;59.316;18.092;2024-02-14T03:55:15;13.77;;;7.63;;
7426;SDS011;3755;59.316;18.092;2024-02-14T03:57:44;14.30;;;8.00;;
7426;SDS011;3755;59.316;18.092;2024-02-14T04:00:12;13.87;;;7.87;;
7426;SDS011;3755;59.316;18.092;2024-02-14T04:02:40;12.93;;;7.57;;
7426;SDS011;3755;59.316;18.092;2024-02-14T04:05:07;14.60;;;7.97;;
7426;SDS011;3755;59.316;18.092;2024-02-14T04:07:35;15.63;;;8.53;;
7426;SDS011;3755;59.316;18.092;2024-02-14T04:10:03;15.13;;;7.90;;
7426;SDS011;3755;59.316;18.092;2024-02-14T04:12:30;14.73;;;7.87;;
7426;SDS011;3755;59.316;18.092;2024-02-14T04:14:58;12.67;;;7.60;;
7426;SDS011;3755;59.316;18.092;2024-02-14T04:17:25;16.80;;;8.67;;
7426;SDS011;3755;59.316;18.092;2024-02-14T04:19:52;16.73;;;8.33;;
7426;SDS011;3755;59.316;18.092;2024-02-14T04:22:19;14.37;;;7.93;;
7426;SDS011;3755;59.316;18.092;2024-02-14T04:24:48;13.60;;;7.53;;
7426;SDS011;3755;59.316;18.092;2024-02-14T04:27:15;13.37;;;7.17;;
7426;SDS011;3755;59.316;18.092;2024-02-14T04:29:44;13.83;;;7.30;;
7426;SDS011;3755;59.316;18.092;2024-02-14T04:32:12;13.70;;;7.30;;
7426;SDS011;3755;59.316;18.092;2024-02-14T04:34:39;14.43;;;7.30;;
7426;SDS011;3755;59.316;18.092;2024-02-14T04:37:08;12.53;;;7.50;;
7426;SDS011;3755;59.316;18.092;2024-02-14T04:39:38;15.97;;;9.07;;
7426;SDS011;3755;59.316;18.092;2024-02-14T04:42:07;13.27;;;8.00;;
7426;SDS011;3755;59.316;18.092;2024-02-14T04:44:34;19.87;;;8.13;;
7426;SDS011;3755;59.316;18.092;2024-02-14T04:47:01;17.50;;;8.60;;
7426;SDS011;3755;59.316;18.092;2024-02-14T04:49:28;16.70;;;8.63;;
7426;SDS011;3755;59.316;18.092;2024-02-14T04:51:56;15.77;;;7.57;;
7426;SDS011;3755;59.316;18.092;2024-02-14T04:54:23;16.53;;;8.83;;
7426;SDS011;3755;59.316;18.092;2024-02-14T04:56:50;17.07;;;9.37;;
7426;SDS011;3755;59.316;18.092;2024-02-14T04:59:19;22.67;;;9.53;;
7426;SDS011;3755;59.316;18.092;2024-02-14T05:01:46;18.27;;;8.87;;
7426;SDS011;3755;59.316;18.092;2024-02-14T05:04:13;20.00;;;9.17;;
7426;SDS011;3755;59.316;18.092;2024-02-14T05:06:41;16.73;;;8.87;;
7426;SDS011;3755;59.316;18.092;2024-02-14T05:09:09;18.77;;;9.50;;
7426;SDS011;3755;59.316;18.092;2024-02-14T05:11:37;19.20;;;8.40;;
7426;SDS011;3755;59.316;18.092;2024-02-14T05:14:04;17.80;;;8.63;;
7426;SDS011;3755;59.316;18.092;2024-02-14T05:16:32;19.60;;;10.43;;
7426;SDS011;3755;59.316;18.092;2024-02-14T05:18:59;20.67;;;9.50;;
7426;SDS011;3755;59.316;18.092;2024-02-14T05:21:26;18.97;;;8.87;;
7426;SDS011;3755;59.316;18.092;2024-02-14T05:23:53;19.10;;;9.20;;
7426;SDS011;3755;59.316;18.092;2024-02-14T05:26:20;22.20;;;9.37;;
7426;SDS011;3755;59.316;18.092;2024-02-14T05:28:48;17.33;;;9.03;;
7426;SDS011;3755;59.316;18.092;2024-02-14T05:31:16;21.17;;;9.17;;
7426;SDS011;3755;59.316;18.092;2024-02-14T05:33:46;21.47;;;9.37;;
7426;SDS011;3755;59.316;18.092;2024-02-14T05:36:14;24.83;;;9.60;;
7426;SDS011;3755;59.316;18.092;2024-02-14T05:38:41;21.23;;;9.43;;
7426;SDS011;3755;59.316;18.092;2024-02-14T05:41:08;21.37;;;8.83;;
7426;SDS011;3755;59.316;18.092;2024-02-14T05:43:36;19.30;;;9.00;;
7426;SDS011;3755;59.316;18.092;2024-02-14T05:46:03;26.43;;;10.30;;
7426;SDS011;3755;59.316;18.092;2024-02-14T05:48:34;25.87;;;11.03;;
7426;SDS011;3755;59.316;18.092;2024-02-14T05:51:03;23.83;;;11.17;;
7426;SDS011;3755;59.316;18.092;2024-02-14T05:53:30;42.70;;;15.53;;
7426;SDS011;3755;59.316;18.092;2024-02-14T05:55:58;28.07;;;9.77;;
7426;SDS011;3755;59.316;18.092;2024-02-14T05:58:25;27.53;;;9.87;;
7426;SDS011;3755;59.316;18.092;2024-02-14T06:00:53;32.87;;;11.27;;
7426;SDS011;3755;59.316;18.092;2024-02-14T06:03:23;23.67;;;10.30;;
7426;SDS011;3755;59.316;18.092;2024-02-14T06:05:51;24.30;;;10.80;;
7426;SDS011;3755;59.316;18.092;2024-02-14T06:08:22;32.03;;;10.67;;
7426;SDS011;3755;59.316;18.092;2024-02-14T06:10:50;27.40;;;10.83;;
7426;SDS011;3755;59.316;18.092;2024-02-14T06:13:18;23.77;;;9.63;;
7426;SDS011;3755;59.316;18.092;2024-02-14T06:15:45;32.53;;;10.83;;
7426;SDS011;3755;59.316;18.092;2024-02-14T06:18:12;29.63;;;11.70;;
7426;SDS011;3755;59.316;18.092;2024-02-14T06:20:42;26.97;;;10.30;;
7426;SDS011;3755;59.316;18.092;2024-02-14T06:23:11;28.57;;;10.70;;
7426;SDS011;3755;59.316;18.092;2024-02-14T06:25:42;30.57;;;10.00;;
7426;SDS011;3755;59.316;18.092;2024-02-14T06:28:10;34.80;;;11.40;;
7426;SDS011;3755;59.316;18.092;2024-02-14T06:30:39;33.17;;;11.17;;
7426;SDS011;3755;59.316;18.092;2024-02-14T06:33:06;26.47;;;10.50;;
7426;SDS011;3755;59.316;18.092;2024-02-14T06:35:34;28.00;;;11.17;;
7426;SDS011;3755;59.316;18.092;2024-02-14T06:38:01;27.33;;;10.73;;
7426;SDS011;3755;59.316;18.092;2024-02-14T06:40:28;31.67;;;10.80;;
7426;SDS011;3755;59.316;18.092;2024-02-14T06:42:59;34.27;;;11.43;;
7426;SDS011;3755;59.316;18.092;2024-02-14T06:45:27;28.80;;;10.90;;
7426;SDS011;3755;59.316;18.092;2024-02-14T06:47:55;26.93;;;11.20;;
7426;SDS011;3755;59.316;18.092;2024-02-14T06:50:22;31.47;;;11.17;;
7426;SDS011;3755;59.316;18.092;2024-02-14T06:52:50;37.10;;;12.20;;
7426;SDS011;3755;59.316;18.092;2024-02-14T06:55:17;39.03;;;12.00;;
7426;SDS011;3755;59.316;18.092;2024-02-14T06:57:44;36.77;;;11.40;;
7426;SDS011;3755;59.316;18.092;2024-02-14T07:00:14;33.97;;;12.30;;
7426;SDS011;3755;59.316;18.092;2024-02-14T07:02:41;34.27;;;12.10;;
7426;SDS011;3755;59.316;18.092;2024-02-14T07:05:13;42.40;;;12.50;;
7426;SDS011;3755;59.316;18.092;2024-02-14T07:07:40;34.23;;;12.07;;
7426;SDS011;3755;59.316;18.092;2024-02-14T07:10:08;29.17;;;11.30;;
7426;SDS011;3755;59.316;18.092;2024-02-14T07:12:35;31.80;;;11.97;;
7426;SDS011;3755;59.316;18.092;2024-02-14T07:15:05;30.80;;;12.03;;
7426;SDS011;3755;59.316;18.092;2024-02-14T07:17:36;32.83;;;11.87;;
7426;SDS011;3755;59.316;18.092;2024-02-14T07:20:04;31.97;;;12.13;;
7426;SDS011;3755;59.316;18.092;2024-02-14T07:22:35;28.37;;;10.83;;
7426;SDS011;3755;59.316;18.092;2024-02-14T07:25:03;25.47;;;11.30;;
7426;SDS011;3755;59.316;18.092;2024-02-14T07:27:46;30.63;;;10.57;;
7426;SDS011;3755;59.316;18.092;2024-02-14T07:30:18;53.10;;;21.70;;
7426;SDS011;3755;59.316;18.092;2024-02-14T07:32:47;37.03;;;12.97;;
7426;SDS011;3755;59.316;18.092;2024-02-14T07:35:16;40.17;;;12.43;;
7426;SDS011;3755;59.316;18.092;2024-02-14T07:37:43;30.93;;;11.47;;
7426;SDS011;3755;59.316;18.092;2024-02-14T07:40:11;31.53;;;11.83;;
7426;SDS011;3755;59.316;18.092;2024-02-14T07:42:39;28.00;;;11.93;;
7426;SDS011;3755;59.316;18.092;2024-02-14T07:45:06;33.80;;;14.07;;
7426;SDS011;3755;59.316;18.092;2024-02-14T07:47:34;25.17;;;11.03;;
7426;SDS011;3755;59.316;18.092;2024-02-14T07:50:02;34.10;;;11.53;;
7426;SDS011;3755;59.316;18.092;2024-02-14T07:52:30;25.50;;;9.63;;
7426;SDS011;3755;59.316;18.092;2024-02-14T07:54:57;32.57;;;12.53;;
7426;SDS011;3755;59.316;18.092;2024-02-14T07:57:25;32.90;;;12.57;;
7426;SDS011;3755;59.316;18.092;2024-02-14T07:59:52;32.83;;;12.27;;
7426;SDS011;3755;59.316;18.092;2024-02-14T08:02:20;30.13;;;12.07;;
7426;SDS011;3755;59.316;18.092;2024-02-14T08:04:47;31.47;;;12.67;;
7426;SDS011;3755;59.316;18.092;2024-02-14T08:07:23;32.67;;;11.97;;
7426;SDS011;3755;59.316;18.092;2024-02-14T08:10:04;29.57;;;12.23;;
7426;SDS011;3755;59.316;18.092;2024-02-14T08:12:39;26.37;;;10.20;;
7426;SDS011;3755;59.316;18.092;2024-02-14T08:15:09;26.77;;;11.77;;
7426;SDS011;3755;59.316;18.092;2024-02-14T08:17:59;28.63;;;11.67;;
7426;SDS011;3755;59.316;18.092;2024-02-14T08:20:27;31.27;;;11.30;;
7426;SDS011;3755;59.316;18.092;2024-02-14T08:22:56;26.23;;;12.23;;
7426;SDS011;3755;59.316;18.092;2024-02-14T08:25:23;27.07;;;11.63;;
7426;SDS011;3755;59.316;18.092;2024-02-14T08:27:51;26.53;;;11.43;;
7426;SDS011;3755;59.316;18.092;2024-02-14T08:30:19;26.53;;;12.13;;
7426;SDS011;3755;59.316;18.092;2024-02-14T08:32:46;34.10;;;11.87;;
7426;SDS011;3755;59.316;18.092;2024-02-14T08:35:13;27.97;;;12.03;;
7426;SDS011;3755;59.316;18.092;2024-02-14T08:37:41;26.87;;;11.37;;
7426;SDS011;3755;59.316;18.092;2024-02-14T08:40:10;27.70;;;11.77;;
7426;SDS011;3755;59.316;18.092;2024-02-14T08:42:37;22.60;;;8.97;;
7426;SDS011;3755;59.316;18.092;2024-02-14T08:45:05;35.73;;;12.20;;
7426;SDS011;3755;59.316;18.092;2024-02-14T08:47:33;26.37;;;11.10;;
7426;SDS011;3755;59.316;18.092;2024-02-14T08:50:03;25.67;;;10.80;;
7426;SDS011;3755;59.316;18.092;2024-02-14T08:52:31;24.40;;;9.87;;
7426;SDS011;3755;59.316;18.092;2024-02-14T08:54:58;29.30;;;10.77;;
7426;SDS011;3755;59.316;18.092;2024-02-14T08:57:27;29.47;;;11.30;;
7426;SDS011;3755;59.316;18.092;2024-02-14T08:59:56;24.17;;;10.93;;
7426;SDS011;3755;59.316;18.092;2024-02-14T09:02:33;24.13;;;9.87;;
7426;SDS011;3755;59.316;18.092;2024-02-14T09:05:17;26.90;;;10.87;;
7426;SDS011;3755;59.316;18.092;2024-02-14T09:07:47;24.00;;;10.60;;
7426;SDS011;3755;59.316;18.092;2024-02-14T09:10:16;24.30;;;9.87;;
7426;SDS011;3755;59.316;18.092;2024-02-14T09:12:48;22.50;;;9.37;;
7426;SDS011;3755;59.316;18.092;2024-02-14T09:15:20;22.17;;;9.50;;
7426;SDS011;3755;59.316;18.092;2024-02-14T09:17:48;23.93;;;10.50;;
7426;SDS011;3755;59.316;18.092;2024-02-14T09:20:15;19.90;;;9.23;;
7426;SDS011;3755;59.316;18.092;2024-02-14T09:22:44;22.57;;;10.03;;
7426;SDS011;3755;59.316;18.092;2024-02-14T09:25:14;23.63;;;10.33;;
7426;SDS011;3755;59.316;18.092;2024-02-14T09:28:19;24.47;;;9.87;;
7426;SDS011;3755;59.316;18.092;2024-02-14T09:30:51;21.07;;;9.23;;
7426;SDS011;3755;59.316;18.092;2024-02-14T09:33:20;22.20;;;9.50;;
7426;SDS011;3755;59.316;18.092;2024-02-14T09:35:49;23.87;;;9.93;;
7426;SDS011;3755;59.316;18.092;2024-02-14T09:38:17;24.70;;;10.37;;
7426;SDS011;3755;59.316;18.092;2024-02-14T09:40:45;21.13;;;9.20;;
7426;SDS011;3755;59.316;18.092;2024-02-14T09:46:08;21.73;;;10.70;;
7426;SDS011;3755;59.316;18.092;2024-02-14T09:48:36;20.63;;;9.97;;
7426;SDS011;3755;59.316;18.092;2024-02-14T09:51:19;21.07;;;9.90;;
7426;SDS011;3755;59.316;18.092;2024-02-14T09:53:47;26.93;;;10.57;;
7426;SDS011;3755;59.316;18.092;2024-02-14T09:56:19;21.47;;;9.53;;
7426;SDS011;3755;59.316;18.092;2024-02-14T09:58:50;17.73;;;8.57;;
7426;SDS011;3755;59.316;18.092;2024-02-14T10:01:21;27.50;;;9.80;;
7426;SDS011;3755;59.316;18.092;2024-02-14T10:03:52;29.70;;;11.00;;
7426;SDS011;3755;59.316;18.092;2024-02-14T10:06:20;25.50;;;10.07;;
7426;SDS011;3755;59.316;18.092;2024-02-14T10:08:52;26.50;;;11.37;;
7426;SDS011;3755;59.316;18.092;2024-02-14T10:11:35;29.10;;;11.03;;
7426;SDS011;3755;59.316;18.092;2024-02-14T10:14:09;31.20;;;11.07;;
7426;SDS011;3755;59.316;18.092;2024-02-14T10:16:40;30.60;;;11.60;;
7426;SDS011;3755;59.316;18.092;2024-02-14T10:19:16;25.20;;;10.63;;
7426;SDS011;3755;59.316;18.092;2024-02-14T10:24:23;25.80;;;11.03;;
7426;SDS011;3755;59.316;18.092;2024-02-14T10:26:51;32.73;;;11.30;;
7426;SDS011;3755;59.316;18.092;2024-02-14T10:29:26;21.27;;;9.40;;
7426;SDS011;3755;59.316;18.092;2024-02-14T10:31:59;24.27;;;11.07;;
7426;SDS011;3755;59.316;18.092;2024-02-14T10:34:29;24.73;;;10.27;;
7426;SDS011;3755;59.316;18.092;2024-02-14T10:37:13;28.30;;;11.53;;
7426;SDS011;3755;59.316;18.092;2024-02-14T10:39:51;25.63;;;10.73;;
7426;SDS011;3755;59.316;18.092;2024-02-14T10:42:21;23.13;;;10.70;;
7426;SDS011;3755;59.316;18.092;2024-02-14T10:44:51;26.73;;;11.20;;
7426;SDS011;3755;59.316;18.092;2024-02-14T10:47:39;21.87;;;10.20;;
7426;SDS011;3755;59.316;18.092;2024-02-14T10:50:44;29.57;;;11.57;;
7426;SDS011;3755;59.316;18.092;2024-02-14T10:53:18;29.10;;;10.60;;
7426;SDS011;3755;59.316;18.092;2024-02-14T10:55:55;32.97;;;11.17;;
7426;SDS011;3755;59.316;18.092;2024-02-14T10:58:25;30.00;;;10.73;;
7426;SDS011;3755;59.316;18.092;2024-02-14T11:01:06;28.00;;;10.40;;
7426;SDS011;3755;59.316;18.092;2024-02-14T11:03:42;23.07;;;10.13;;
7426;SDS011;3755;59.316;18.092;2024-02-14T11:06:16;23.83;;;9.33;;
7426;SDS011;3755;59.316;18.092;2024-02-14T11:09:00;21.93;;;9.30;;
7426;SDS011;3755;59.316;18.092;2024-02-14T11:11:36;24.60;;;8.77;;
7426;SDS011;3755;59.316;18.092;2024-02-14T11:14:06;20.27;;;8.27;;
7426;SDS011;3755;59.316;18.092;2024-02-14T11:16:44;24.90;;;10.67;;
7426;SDS011;3755;59.316;18.092;2024-02-14T11:19:12;22.13;;;8.57;;
7426;SDS011;3755;59.316;18.092;2024-02-14T11:21:42;18.80;;;8.47;;
7426;SDS011;3755;59.316;18.092;2024-02-14T11:24:11;20.97;;;8.37;;
7426;SDS011;3755;59.316;18.092;2024-02-14T11:26:48;24.03;;;8.57;;
7426;SDS011;3755;59.316;18.092;2024-02-14T11:29:19;19.90;;;7.80;;
7426;SDS011;3755;59.316;18.092;2024-02-14T11:32:08;20.40;;;8.70;;
7426;SDS011;3755;59.316;18.092;2024-02-14T11:34:53;18.07;;;7.27;;
7426;SDS011;3755;59.316;18.092;2024-02-14T11:37:28;16.37;;;7.23;;
7426;SDS011;3755;59.316;18.092;2024-02-14T11:39:56;18.87;;;7.40;;
7426;SDS011;3755;59.316;18.092;2024-02-14T11:42:34;23.00;;;8.00;;
7426;SDS011;3755;59.316;18.092;2024-02-14T11:45:14;19.67;;;8.13;;
7426;SDS011;3755;59.316;18.092;2024-02-14T11:47:46;14.67;;;8.17;;
7426;SDS011;3755;59.316;18.092;2024-02-14T11:50:22;16.07;;;6.27;;
7426;SDS011;3755;59.316;18.092;2024-02-14T11:53:26;14.53;;;7.10;;
7426;SDS011;3755;59.316;18.092;2024-02-14T11:56:01;12.13;;;6.27;;
7426;SDS011;3755;59.316;18.092;2024-02-14T11:58:43;18.07;;;7.23;;
7426;SDS011;3755;59.316;18.092;2024-02-14T12:01:18;15.57;;;7.50;;
7426;SDS011;3755;59.316;18.092;2024-02-14T12:03:47;18.43;;;6.77;;
7426;SDS011;3755;59.316;18.092;2024-02-14T12:06:21;19.17;;;6.87;;
7426;SDS011;3755;59.316;18.092;2024-02-14T12:08:52;18.13;;;6.03;;
7426;SDS011;3755;59.316;18.092;2024-02-14T12:11:27;17.37;;;6.63;;
7426;SDS011;3755;59.316;18.092;2024-02-14T12:14:09;16.47;;;6.17;;
7426;SDS011;3755;59.316;18.092;2024-02-14T12:16:37;14.13;;;5.83;;
7426;SDS011;3755;59.316;18.092;2024-02-14T12:19:09;13.40;;;5.93;;
7426;SDS011;3755;59.316;18.092;2024-02-14T12:21:41;12.53;;;5.33;;
7426;SDS011;3755;59.316;18.092;2024-02-14T12:24:11;14.40;;;5.30;;
7426;SDS011;3755;59.316;18.092;2024-02-14T12:26:50;15.47;;;5.97;;
7426;SDS011;3755;59.316;18.092;2024-02-14T12:29:19;12.23;;;5.33;;
7426;SDS011;3755;59.316;18.092;2024-02-14T12:31:50;14.63;;;5.03;;
7426;SDS011;3755;59.316;18.092;2024-02-14T12:34:31;13.53;;;4.40;;
7426;SDS011;3755;59.316;18.092;2024-02-14T12:37:01;11.97;;;3.80;;
7426;SDS011;3755;59.316;18.092;2024-02-14T12:39:30;6.33;;;3.17;;
7426;SDS011;3755;59.316;18.092;2024-02-14T12:42:02;11.53;;;3.80;;
7426;SDS011;3755;59.316;18.092;2024-02-14T12:44:31;13.07;;;3.47;;
7426;SDS011;3755;59.316;18.092;2024-02-14T12:47:00;6.10;;;3.00;;
7426;SDS011;3755;59.316;18.092;2024-02-14T12:49:28;11.33;;;3.20;;
7426;SDS011;3755;59.316;18.092;2024-02-14T12:51:59;14.50;;;3.37;;
7426;SDS011;3755;59.316;18.092;2024-02-14T12:54:43;7.37;;;3.30;;
7426;SDS011;3755;59.316;18.092;2024-02-14T12:57:17;9.07;;;3.23;;
7426;SDS011;3755;59.316;18.092;2024-02-14T12:59:46;7.23;;;2.73;;
7426;SDS011;3755;59.316;18.092;2024-02-14T13:02:13;13.17;;;2.93;;
7426;SDS011;3755;59.316;18.092;2024-02-14T13:04:46;7.07;;;2.90;;
7426;SDS011;3755;59.316;18.092;2024-02-14T13:07:22;11.90;;;3.23;;
7426;SDS011;3755;59.316;18.092;2024-02-14T13:09:57;6.53;;;2.93;;
7426;SDS011;3755;59.316;18.092;2024-02-14T13:12:25;7.00;;;2.73;;
7426;SDS011;3755;59.316;18.092;2024-02-14T13:15:00;9.87;;;2.97;;
7426;SDS011;3755;59.316;18.092;2024-02-14T13:17:29;9.67;;;2.90;;
7426;SDS011;3755;59.316;18.092;2024-02-14T13:19:59;6.03;;;2.20;;
7426;SDS011;3755;59.316;18.092;2024-02-14T13:22:30;6.07;;;2.77;;
7426;SDS011;3755;59.316;18.092;2024-02-14T13:25:15;8.97;;;2.70;;
7426;SDS011;3755;59.316;18.092;2024-02-14T13:27:56;7.17;;;2.80;;
7426;SDS011;3755;59.316;18.092;2024-02-14T13:30:25;9.13;;;2.50;;
7426;SDS011;3755;59.316;18.092;2024-02-14T13:33:08;8.17;;;2.30;;
7426;SDS011;3755;59.316;18.092;2024-02-14T13:35:38;6.47;;;2.90;;
7426;SDS011;3755;59.316;18.092;2024-02-14T13:38:07;7.80;;;2.97;;
7426;SDS011;3755;59.316;18.092;2024-02-14T13:40:53;8.20;;;3.20;;
7426;SDS011;3755;59.316;18.092;2024-02-14T13:43:25;8.40;;;2.93;;
7426;SDS011;3755;59.316;18.092;2024-02-14T13:45:52;5.70;;;3.23;;
7426;SDS011;3755;59.316;18.092;2024-02-14T13:51:07;13.33;;;3.57;;
7426;SDS011;3755;59.316;18.092;2024-02-14T13:53:36;13.63;;;3.53;;
7426;SDS011;3755;59.316;18.092;2024-02-14T13:56:05;14.10;;;4.07;;
7426;SDS011;3755;59.316;18.092;2024-02-14T13:58:36;11.73;;;3.97;;
7426;SDS011;3755;59.316;18.092;2024-02-14T14:01:05;11.77;;;4.10;;
7426;SDS011;3755;59.316;18.092;2024-02-14T14:03:33;17.63;;;4.07;;
7426;SDS011;3755;59.316;18.092;2024-02-14T14:06:15;17.50;;;3.70;;
7426;SDS011;3755;59.316;18.092;2024-02-14T14:08:50;12.67;;;3.80;;
7426;SDS011;3755;59.316;18.092;2024-02-14T14:11:17;8.00;;;3.50;;
7426;SDS011;3755;59.316;18.092;2024-02-14T14:13:44;15.20;;;4.20;;
7426;SDS011;3755;59.316;18.092;2024-02-14T14:16:14;10.10;;;3.00;;
7426;SDS011;3755;59.316;18.092;2024-02-14T14:18:55;8.63;;;3.13;;
7426;SDS011;3755;59.316;18.092;2024-02-14T14:21:23;7.00;;;2.43;;
7426;SDS011;3755;59.316;18.092;2024-02-14T14:23:53;9.43;;;2.77;;
7426;SDS011;3755;59.316;18.092;2024-02-14T14:26:21;7.43;;;2.17;;
7426;SDS011;3755;59.316;18.092;2024-02-14T14:28:49;12.97;;;3.83;;
7426;SDS011;3755;59.316;18.092;2024-02-14T14:31:18;9.27;;;2.93;;
7426;SDS011;3755;59.316;18.092;2024-02-14T14:33:45;8.83;;;2.97;;
7426;SDS011;3755;59.316;18.092;2024-02-14T14:36:14;10.00;;;3.00;;
7426;SDS011;3755;59.316;18.092;2024-02-14T14:38:41;8.77;;;2.80;;
7426;SDS011;3755;59.316;18.092;2024-02-14T14:41:11;12.20;;;3.80;;
7426;SDS011;3755;59.316;18.092;2024-02-14T14:43:39;10.37;;;3.50;;
7426;SDS011;3755;59.316;18.092;2024-02-14T14:46:07;14.80;;;3.77;;
7426;SDS011;3755;59.316;18.092;2024-02-14T14:48:34;9.50;;;3.10;;
7426;SDS011;3755;59.316;18.092;2024-02-14T14:51:01;12.43;;;3.13;;
7426;SDS011;3755;59.316;18.092;2024-02-14T14:53:29;7.97;;;2.43;;
7426;SDS011;3755;59.316;18.092;2024-02-14T14:55:56;4.70;;;2.33;;
7426;SDS011;3755;59.316;18.092;2024-02-14T14:58:29;10.97;;;2.93;;
7426;SDS011;3755;59.316;18.092;2024-02-14T15:00:59;8.03;;;3.17;;
7426;SDS011;3755;59.316;18.092;2024-02-14T15:03:29;9.00;;;2.43;;
7426;SDS011;3755;59.316;18.092;2024-02-14T15:05:57;7.33;;;2.57;;
7426;SDS011;3755;59.316;18.092;2024-02-14T15:08:38;8.17;;;2.77;;
7426;SDS011;3755;59.316;18.092;2024-02-14T15:11:07;7.37;;;2.80;;